createdAt,value
2022-10-23T00:00:02.140Z,1007.3717055949502
2022-10-23T00:15:01.833Z,1007.4092450873264
2022-10-23T00:30:01.511Z,1007.1703769578281
2022-10-23T00:45:02.193Z,1007.2798754461448
2022-10-23T01:00:01.835Z,1007.2792559224591
2022-10-23T01:15:01.523Z,1007.2581046975258
2022-10-23T01:30:02.205Z,1007.2940064213655
2022-10-23T01:45:01.809Z,1007.3873174082127
2022-10-23T02:00:02.442Z,1007.1333561277941
2022-10-23T02:15:02.089Z,1006.8831252528829
2022-10-23T02:30:01.782Z,1006.8413700567347
2022-10-23T02:45:01.484Z,1006.7139221950475
2022-10-23T03:00:02.122Z,1006.3744136155257
2022-10-23T03:15:01.762Z,1006.2194868302994
2022-10-23T03:30:01.464Z,1006.2403456833556
2022-10-23T03:45:02.092Z,1006.2340314218092
2022-10-23T04:00:01.739Z,1006.1961620257857
2022-10-23T04:15:01.405Z,1006.0081009516641
2022-10-23T04:30:02.214Z,1006.0392867325089
2022-10-23T04:45:01.887Z,1005.94358192361
2022-10-23T05:00:01.598Z,1005.7413372414151
2022-10-23T05:15:02.206Z,1005.7279450181824
2022-10-23T05:30:01.989Z,1005.5445541455994
2022-10-23T05:45:01.700Z,1005.3809995571127
2022-10-23T06:00:01.345Z,1005.3515798516194
2022-10-23T06:15:02.119Z,1005.2904804791596
2022-10-23T06:30:02.006Z,1004.9744542770733
2022-10-23T06:45:04.910Z,1005.0522622312532
2022-10-23T07:00:02.160Z,1005.0387292784824
2022-10-23T07:15:01.808Z,1005.1575263543054
2022-10-23T07:30:02.492Z,1005.1689797665372
2022-10-23T07:45:02.112Z,1005.0698124760685
2022-10-23T08:00:01.715Z,1004.7234272917138
2022-10-23T08:15:02.346Z,1004.6986971006347
2022-10-23T08:30:02.021Z,1004.7064331586539
2022-10-23T08:45:01.674Z,1004.622429217159
2022-10-23T09:00:02.311Z,1004.61055549257
2022-10-23T09:15:02.017Z,1004.4792642648623
2022-10-23T09:30:01.726Z,1004.2945301747873
2022-10-23T09:45:02.402Z,1004.096223368684
2022-10-23T10:00:02.042Z,1004.0094156772168
2022-10-23T10:15:01.691Z,1003.9202279586319
2022-10-23T10:30:02.388Z,1003.8422572359538
2022-10-23T10:45:02.090Z,1003.6323397894937
2022-10-23T11:00:01.697Z,1003.2627846180543
2022-10-23T11:15:02.363Z,1003.062937336095
2022-10-23T11:30:02.080Z,1002.7356740862596
2022-10-23T11:45:01.735Z,1002.5800921797504
2022-10-23T12:00:01.399Z,1002.1660001463653
2022-10-23T12:15:02.057Z,1001.8814734669857
2022-10-23T12:30:01.736Z,1001.6023129966732
2022-10-23T12:45:01.403Z,1001.1650683932828
2022-10-23T13:00:02.063Z,1001.0625851216603
2022-10-23T13:15:01.717Z,1000.997823844275
2022-10-23T13:30:01.984Z,1000.8155760914028
2022-10-23T13:45:01.921Z,1000.0830171458234
2022-10-23T14:00:01.561Z,1000.0684576240798
2022-10-23T14:15:02.300Z,999.8849867408857
2022-10-23T14:30:02.176Z,999.7870754019385
2022-10-23T14:45:01.840Z,999.549899550901
2022-10-23T15:00:02.459Z,999.3289485097571
2022-10-23T15:15:02.080Z,999.1938545690193
2022-10-23T15:30:01.853Z,999.0181408129071
2022-10-23T15:45:01.532Z,998.7864177741842
2022-10-23T16:00:02.144Z,998.5808286208915
2022-10-23T16:15:01.826Z,998.4034234800447
2022-10-23T16:30:02.439Z,998.4746226030641
2022-10-23T16:45:02.073Z,998.7768702718192
2022-10-23T17:00:01.709Z,998.61213012448
2022-10-23T17:15:02.317Z,998.5308176664618
2022-10-23T17:30:02.000Z,998.7888515876683
2022-10-23T17:45:01.682Z,999.2011958742426
2022-10-23T18:00:02.286Z,999.710005054646
2022-10-23T18:15:01.906Z,1000.1064997259715
2022-10-23T18:30:01.605Z,999.8035907670943
2022-10-23T18:45:02.244Z,997.4448729670033
2022-10-23T19:00:01.867Z,998.094458020074
2022-10-23T19:15:01.502Z,998.0176034379845
2022-10-23T19:30:02.186Z,998.1086034602887
2022-10-23T19:45:01.838Z,998.391729680188
2022-10-23T20:00:01.485Z,998.1603597783935
2022-10-23T20:15:02.142Z,997.9638043726558
2022-10-23T20:30:01.820Z,998.0492001507617
2022-10-23T20:45:01.499Z,998.0879203239688
2022-10-23T21:00:02.153Z,998.0136705101945
2022-10-23T21:15:01.936Z,998.1181521845627
2022-10-23T21:30:01.704Z,998.3991923283928
2022-10-23T21:45:01.387Z,998.8175914231754
2022-10-23T22:00:02.042Z,998.8358271223477
2022-10-23T22:15:01.786Z,998.5616746817223
2022-10-23T22:30:01.718Z,998.5885389673647
2022-10-23T22:45:02.394Z,998.6093970213851
2022-10-23T23:00:02.009Z,998.5621917504817
2022-10-23T23:15:01.701Z,998.739194899352
2022-10-23T23:30:02.347Z,998.8008105543269
2022-10-23T23:45:13.584Z,998.9434385939877
